Time;durP1;ratioP1;P1;durP2;ratioP2;P2;SDS_P1;SDS_P2;PMS_P1;PMS_P2;Temp;Humidity;BMP_temperature;BMP_pressure;BME280_temperature;BME280_humidity;BME280_pressure;Samples;Min_cycle;Max_cycle;Signal;HPM_P1;HPM_P2
2023/01/09 04:00:51;;;;;;;1.70;1.58;;;14.10;53.70;;;;;;5710005;23;46436;-66
2023/01/09 04:03:19;;;;;;;2.33;1.80;;;14.20;53.70;;;;;;4893439;23;45030;-60
2023/01/09 04:05:46;;;;;;;2.83;2.25;;;14.20;53.80;;;;;;4919655;28;46517;-61
2023/01/09 04:08:11;;;;;;;2.85;2.10;;;14.20;53.70;;;;;;4919704;28;46198;-60
2023/01/09 04:10:37;;;;;;;3.22;1.90;;;14.10;53.70;;;;;;4925244;28;45317;-60
2023/01/09 04:13:02;;;;;;;2.30;1.60;;;14.10;53.70;;;;;;4911295;28;45908;-60
2023/01/09 04:15:28;;;;;;;2.00;1.75;;;14.10;53.90;;;;;;4906520;28;45012;-60
2023/01/09 04:17:53;;;;;;;2.20;1.70;;;14.20;53.80;;;;;;4902999;28;45497;-61
2023/01/09 04:20:19;;;;;;;2.20;1.77;;;14.20;53.70;;;;;;4907991;28;45409;-61
2023/01/09 04:22:44;;;;;;;2.65;2.00;;;14.10;53.70;;;;;;4904021;28;45324;-61
2023/01/09 04:25:10;;;;;;;2.78;1.65;;;14.20;53.80;;;;;;4902726;28;46687;-63
2023/01/09 04:27:35;;;;;;;2.17;1.80;;;14.10;53.70;;;;;;4904898;28;45527;-59
2023/01/09 04:30:01;;;;;;;1.70;1.58;;;14.10;53.70;;;;;;4901757;28;44961;-60
2023/01/09 04:32:27;;;;;;;1.85;1.60;;;14.10;53.70;;;;;;4900742;28;45508;-60
2023/01/09 04:34:53;;;;;;;2.97;1.92;;;14.10;53.80;;;;;;4902540;28;45529;-61
2023/01/09 04:37:19;;;;;;;2.75;2.03;;;14.20;53.70;;;;;;4901378;28;45899;-62
2023/01/09 04:39:45;;;;;;;2.10;1.77;;;14.10;53.70;;;;;;4904889;28;45320;-61
2023/01/09 04:42:10;;;;;;;1.58;1.48;;;14.10;53.70;;;;;;4900644;28;45551;-61
2023/01/09 04:44:36;;;;;;;2.22;1.80;;;14.20;53.80;;;;;;4902572;28;45300;-61
2023/01/09 04:47:02;;;;;;;2.58;1.90;;;14.10;53.70;;;;;;4916343;28;45490;-62
2023/01/09 04:49:27;;;;;;;1.85;1.65;;;14.10;53.70;;;;;;4902783;28;44697;-60
2023/01/09 04:51:53;;;;;;;2.53;1.98;;;14.10;53.80;;;;;;4902135;28;44913;-61
2023/01/09 04:54:18;;;;;;;3.20;1.98;;;14.10;53.70;;;;;;4905440;28;46063;-61
2023/01/09 04:56:44;;;;;;;2.10;1.70;;;14.10;53.70;;;;;;4910832;28;46236;-61
2023/01/09 04:59:10;;;;;;;1.92;1.67;;;14.10;53.70;;;;;;4878046;28;45469;-60
2023/01/09 05:01:35;;;;;;;2.10;1.83;;;14.10;53.70;;;;;;4890267;28;45647;-61
2023/01/09 05:04:01;;;;;;;2.90;1.88;;;14.10;53.70;;;;;;4892406;28;45478;-61
2023/01/09 05:06:27;;;;;;;1.92;1.67;;;14.10;53.70;;;;;;4909519;28;45324;-61
2023/01/09 05:08:52;;;;;;;2.38;1.75;;;14.10;53.70;;;;;;4908307;28;44878;-61
2023/01/09 05:11:18;;;;;;;1.98;1.55;;;14.10;53.70;;;;;;4910422;28;45205;-59
2023/01/09 05:13:44;;;;;;;1.85;1.70;;;14.10;53.70;;;;;;4893309;28;46944;-60
2023/01/09 05:16:09;;;;;;;2.35;1.77;;;14.20;53.70;;;;;;4888930;28;45523;-61
2023/01/09 05:18:35;;;;;;;2.33;1.80;;;14.10;53.70;;;;;;4912394;28;45491;-61
2023/01/09 05:21:01;;;;;;;2.40;1.63;;;14.10;53.70;;;;;;4879970;28;44756;-60
2023/01/09 05:23:26;;;;;;;2.25;1.92;;;14.10;53.70;;;;;;4902947;28;45991;-61
2023/01/09 05:25:52;;;;;;;2.00;1.70;;;14.20;53.80;;;;;;4909656;28;45355;-63
2023/01/09 05:28:17;;;;;;;2.00;1.70;;;14.10;53.80;;;;;;4897002;28;44848;-61
2023/01/09 05:30:43;;;;;;;2.00;1.50;;;14.10;53.70;;;;;;4906996;28;45245;-61
2023/01/09 05:33:09;;;;;;;2.35;1.80;;;14.10;53.80;;;;;;4905508;28;48433;-61
2023/01/09 05:35:34;;;;;;;1.85;1.67;;;14.10;53.70;;;;;;4909850;28;45218;-61
2023/01/09 05:38:00;;;;;;;2.60;1.95;;;14.10;53.70;;;;;;4861882;28;45590;-61
2023/01/09 05:40:25;;;;;;;1.67;1.58;;;14.10;53.70;;;;;;4908338;28;45340;-61
2023/01/09 05:42:51;;;;;;;1.98;1.77;;;14.10;53.70;;;;;;4904929;28;45509;-61
2023/01/09 05:45:16;;;;;;;1.92;1.60;;;14.10;53.70;;;;;;4907127;28;44982;-61
2023/01/09 05:47:45;;;;;;;2.03;1.80;;;14.10;53.70;;;;;;4907750;28;45237;-61
2023/01/09 05:50:11;;;;;;;2.40;1.90;;;14.10;53.70;;;;;;4908585;28;45065;-60
2023/01/09 05:52:37;;;;;;;1.48;1.33;;;14.10;53.70;;;;;;4906926;28;46475;-60
2023/01/09 05:55:03;;;;;;;2.03;1.55;;;14.10;53.90;;;;;;4908028;28;45554;-60
2023/01/09 05:57:29;;;;;;;1.85;1.45;;;14.10;53.70;;;;;;4887454;28;45728;-60
2023/01/09 05:59:54;;;;;;;2.28;1.88;;;14.10;53.70;;;;;;4907873;28;45207;-61
2023/01/09 06:02:20;;;;;;;2.22;1.65;;;14.10;53.70;;;;;;4903441;28;48483;-61
2023/01/09 06:04:45;;;;;;;2.85;2.00;;;14.10;53.70;;;;;;4903232;28;45212;-61
2023/01/09 06:07:11;;;;;;;1.63;1.40;;;14.10;53.70;;;;;;4907220;28;45263;-61
2023/01/09 06:09:36;;;;;;;2.30;1.90;;;14.10;53.80;;;;;;4907502;28;45294;-61
2023/01/09 06:12:02;;;;;;;1.85;1.42;;;14.10;53.70;;;;;;4891094;28;45545;-61
2023/01/09 06:14:28;;;;;;;2.63;1.70;;;14.10;53.70;;;;;;4891731;28;45459;-61
2023/01/09 06:16:54;;;;;;;2.03;1.67;;;14.10;53.70;;;;;;4909242;28;45559;-60
2023/01/09 06:19:19;;;;;;;1.63;1.38;;;14.10;53.70;;;;;;4907569;28;45181;-61
2023/01/09 06:21:45;;;;;;;1.67;1.58;;;14.10;53.70;;;;;;4891249;28;46814;-61
2023/01/09 06:24:10;;;;;;;2.10;1.67;;;14.10;53.70;;;;;;4891058;28;46276;-61
2023/01/09 06:26:36;;;;;;;3.92;1.98;;;14.10;53.70;;;;;;4907886;28;45244;-61
2023/01/09 06:29:02;;;;;;;2.22;1.75;;;14.10;53.70;;;;;;4874455;28;45394;-61
2023/01/09 06:31:27;;;;;;;1.95;1.60;;;14.10;53.70;;;;;;4906176;28;47222;-61
2023/01/09 06:33:53;;;;;;;2.45;1.60;;;14.10;53.70;;;;;;4909109;23;45459;-60
2023/01/09 06:36:18;;;;;;;2.45;1.65;;;14.10;54.10;;;;;;4942088;28;45057;-61
2023/01/09 06:38:44;;;;;;;2.08;1.88;;;14.10;53.70;;;;;;4914959;28;45187;-60
2023/01/09 06:41:09;;;;;;;2.58;1.60;;;14.10;54.00;;;;;;4928616;28;45215;-61
2023/01/09 06:43:35;;;;;;;1.83;1.42;;;14.10;53.70;;;;;;4927874;28;45542;-62
2023/01/09 06:46:01;;;;;;;1.58;1.48;;;14.10;53.70;;;;;;4926875;28;45304;-62
2023/01/09 06:48:26;;;;;;;4.13;1.50;;;14.20;53.70;;;;;;4910304;28;45365;-61
2023/01/09 06:50:52;;;;;;;2.65;1.60;;;14.30;53.60;;;;;;4924797;28;46170;-62
2023/01/09 06:53:18;;;;;;;1.67;1.27;;;14.50;53.40;;;;;;4925377;28;45553;-63
2023/01/09 06:55:44;;;;;;;2.13;1.50;;;14.70;53.10;;;;;;4942955;28;45476;-62
2023/01/09 06:58:09;;;;;;;2.20;1.60;;;14.90;52.80;;;;;;4925681;28;45656;-62
2023/01/09 07:00:35;;;;;;;1.80;1.48;;;15.10;52.50;;;;;;4925198;28;45458;-62
2023/01/09 07:03:01;;;;;;;2.17;1.50;;;15.30;52.40;;;;;;4925857;28;45521;-62
2023/01/09 07:05:26;;;;;;;1.95;1.45;;;15.40;52.20;;;;;;4926744;28;45560;-62
2023/01/09 07:07:52;;;;;;;1.50;1.17;;;15.60;52.00;;;;;;4925710;28;45594;-62
2023/01/09 07:10:17;;;;;;;3.53;1.20;;;15.80;51.80;;;;;;4924151;28;47167;-61
2023/01/09 07:12:43;;;;;;;1.65;1.50;;;15.90;51.60;;;;;;4913225;28;46114;-61
2023/01/09 07:15:09;;;;;;;1.73;1.30;;;16.10;51.50;;;;;;4928524;28;45265;-62
2023/01/09 07:17:34;;;;;;;1.40;1.27;;;16.30;51.30;;;;;;4928421;28;45126;-61
2023/01/09 07:20:00;;;;;;;1.40;1.20;;;16.40;51.20;;;;;;4912344;28;45677;-62
2023/01/09 07:22:25;;;;;;;1.25;1.15;;;16.60;51.10;;;;;;4926906;28;45189;-62
2023/01/09 07:24:51;;;;;;;1.20;1.10;;;16.70;50.90;;;;;;4927077;28;45629;-62
2023/01/09 07:27:16;;;;;;;2.08;1.40;;;16.80;50.80;;;;;;4929063;28;45307;-62
2023/01/09 07:29:42;;;;;;;1.45;1.35;;;17.00;50.80;;;;;;4934709;28;46552;-62
2023/01/09 07:32:08;;;;;;;1.52;1.20;;;17.10;50.60;;;;;;4924102;28;45439;-62
2023/01/09 07:34:33;;;;;;;1.30;1.15;;;17.30;50.50;;;;;;4925706;28;45410;-63
2023/01/09 07:36:59;;;;;;;1.60;1.10;;;17.40;50.40;;;;;;4925486;28;45273;-63
2023/01/09 07:39:24;;;;;;;1.75;1.20;;;17.60;50.30;;;;;;4925561;28;45956;-62
2023/01/09 07:41:50;;;;;;;1.33;1.15;;;17.70;50.10;;;;;;4925341;28;44767;-61
2023/01/09 07:44:15;;;;;;;2.63;1.15;;;17.90;50.00;;;;;;4939870;28;45405;-62
2023/01/09 07:46:41;;;;;;;3.35;1.13;;;18.00;49.80;;;;;;4910640;28;45255;-61
2023/01/09 07:49:06;;;;;;;1.40;1.27;;;18.20;49.70;;;;;;4926228;28;46639;-61
2023/01/09 07:51:32;;;;;;;1.40;1.10;;;18.30;50.10;;;;;;4926608;28;48250;-60
2023/01/09 07:53:57;;;;;;;1.45;1.30;;;18.40;49.40;;;;;;4923381;28;45562;-64
2023/01/09 07:56:23;;;;;;;1.30;1.10;;;18.50;49.30;;;;;;4912225;28;45366;-63
2023/01/09 07:58:48;;;;;;;2.13;1.27;;;18.70;49.10;;;;;;4943322;28;48074;-62
2023/01/09 08:01:14;;;;;;;1.30;1.20;;;18.80;48.90;;;;;;4941037;28;45599;-62
2023/01/09 08:03:39;;;;;;;1.10;1.00;;;18.90;48.80;;;;;;4926142;28;45315;-62
2023/01/09 08:06:05;;;;;;;1.98;1.17;;;19.10;48.80;;;;;;4924877;28;45478;-60
2023/01/09 08:08:31;;;;;;;1.20;1.10;;;19.20;48.60;;;;;;4928964;28;45734;-63
2023/01/09 08:10:56;;;;;;;1.15;1.05;;;19.30;48.50;;;;;;4933282;28;45488;-63
2023/01/09 08:13:22;;;;;;;1.40;1.08;;;19.40;48.40;;;;;;4922046;28;45272;-63
2023/01/09 08:15:47;;;;;;;1.27;1.00;;;19.60;48.30;;;;;;4912472;28;45239;-63
2023/01/09 08:18:13;;;;;;;0.80;0.80;;;19.70;48.20;;;;;;4903620;28;45522;-63
2023/01/09 08:20:38;;;;;;;2.08;0.93;;;19.80;48.00;;;;;;4923574;28;45258;-63
2023/01/09 08:23:04;;;;;;;3.20;1.45;;;19.90;47.90;;;;;;4921789;28;44987;-63
2023/01/09 08:25:29;;;;;;;1.80;1.10;;;20.00;47.70;;;;;;4906814;28;45357;-63
2023/01/09 08:27:55;;;;;;;1.17;1.05;;;20.10;47.70;;;;;;4925995;28;45736;-62
2023/01/09 08:30:20;;;;;;;1.02;0.90;;;20.20;47.50;;;;;;4925724;28;45059;-62
2023/01/09 08:32:50;;;;;;;0.98;0.90;;;20.40;47.50;;;;;;4939443;28;45367;-62
2023/01/09 08:35:15;;;;;;;1.10;1.00;;;20.50;47.90;;;;;;4927450;28;45396;-62
2023/01/09 08:37:45;;;;;;;2.60;1.10;;;20.50;47.20;;;;;;4929000;28;47125;-62
2023/01/09 08:40:11;;;;;;;1.33;1.13;;;20.70;47.00;;;;;;4926272;28;45425;-63
2023/01/09 08:48:06;;;;;;;1.92;0.90;;;21.00;46.80;;;;;;4935346;28;46031;-63
2023/01/09 08:50:31;;;;;;;1.00;0.90;;;21.10;46.70;;;;;;4908651;28;45440;-63
2023/01/09 08:52:57;;;;;;;1.45;0.93;;;21.20;46.50;;;;;;4926012;28;45918;-63
2023/01/09 08:55:22;;;;;;;0.80;0.63;;;21.30;46.50;;;;;;4924461;28;47829;-64
2023/01/09 08:57:49;;;;;;;1.42;1.00;;;21.30;46.30;;;;;;4926942;28;45910;-62
2023/01/09 09:00:16;;;;;;;4.20;1.02;;;21.40;46.20;;;;;;4926893;28;45461;-63
2023/01/09 09:02:41;;;;;;;1.10;0.90;;;21.50;46.10;;;;;;4924655;28;45416;-62
2023/01/09 09:05:08;;;;;;;1.15;0.95;;;21.60;46.10;;;;;;4911642;28;45090;-64
2023/01/09 09:07:33;;;;;;;1.60;1.00;;;21.70;46.00;;;;;;4909815;28;45043;-63
2023/01/09 09:09:59;;;;;;;0.88;0.68;;;21.80;45.90;;;;;;4927226;28;45495;-63
2023/01/09 09:12:24;;;;;;;1.13;0.80;;;21.90;45.80;;;;;;4922877;28;44992;-63
2023/01/09 09:17:34;;;;;;;2.60;0.80;;;22.00;45.70;;;;;;4925063;28;45396;-61
2023/01/09 09:19:59;;;;;;;0.73;0.73;;;22.00;45.70;;;;;;4925592;28;45308;-61
2023/01/09 09:22:25;;;;;;;1.10;0.70;;;22.10;45.70;;;;;;4921004;28;45324;-60
2023/01/09 09:24:51;;;;;;;0.52;0.52;;;22.20;45.60;;;;;;4923573;28;45202;-61
2023/01/09 09:27:16;;;;;;;1.10;0.90;;;22.20;45.50;;;;;;4912044;28;47387;-59
2023/01/09 09:29:42;;;;;;;1.50;1.00;;;22.30;45.60;;;;;;4928004;28;45293;-60
2023/01/09 09:32:07;;;;;;;0.90;0.70;;;22.30;45.50;;;;;;4924645;28;45270;-61
2023/01/09 09:34:33;;;;;;;1.10;0.88;;;22.40;45.40;;;;;;4923574;28;45122;-61
2023/01/09 09:36:58;;;;;;;1.60;0.80;;;22.40;45.30;;;;;;4921876;28;45594;-61
2023/01/09 09:39:24;;;;;;;1.30;0.88;;;22.50;45.30;;;;;;4926909;28;45667;-62
2023/01/09 09:45:12;;;;;;;1.70;0.80;;;22.60;44.80;;;;;;4930744;28;45087;-62
2023/01/09 09:48:12;;;;;;;1.13;1.00;;;22.70;45.20;;;;;;4878201;28;46711;-61
2023/01/09 09:50:55;;;;;;;0.75;0.70;;;22.80;44.50;;;;;;4927793;28;45254;-62
2023/01/09 09:53:47;;;;;;;0.52;0.50;;;22.80;44.50;;;;;;4907081;28;45226;-62
2023/01/09 09:56:13;;;;;;;1.27;0.63;;;22.90;44.30;;;;;;4916416;28;44919;-61
2023/01/09 09:59:05;;;;;;;0.93;0.70;;;22.90;44.90;;;;;;4895958;28;45349;-61
2023/01/09 10:01:40;;;;;;;1.23;0.90;;;23.00;44.60;;;;;;4899988;28;45445;-61
2023/01/09 10:04:10;;;;;;;1.05;0.77;;;23.00;44.40;;;;;;4889505;28;45035;-61
2023/01/09 10:06:43;;;;;;;1.17;0.90;;;23.10;44.60;;;;;;4928513;28;45678;-62
2023/01/09 10:09:12;;;;;;;0.82;0.73;;;23.10;44.50;;;;;;4897125;28;45374;-62
2023/01/09 10:12:02;;;;;;;1.95;0.70;;;23.20;44.50;;;;;;4928055;28;45030;-61
2023/01/09 10:14:29;;;;;;;0.80;0.57;;;23.20;44.10;;;;;;4897791;28;45305;-61
2023/01/09 10:17:34;;;;;;;1.08;0.88;;;23.20;44.50;;;;;;4914115;28;45450;-61
2023/01/09 10:20:37;;;;;;;0.70;0.70;;;23.30;43.80;;;;;;4927166;28;45571;-61
2023/01/09 10:23:22;;;;;;;0.90;0.80;;;23.30;43.80;;;;;;4911883;28;45049;-61
2023/01/09 10:26:13;;;;;;;0.93;0.50;;;23.40;43.80;;;;;;4905113;28;45237;-62
2023/01/09 10:29:15;;;;;;;1.38;0.73;;;23.40;44.10;;;;;;4910183;28;45430;-62
2023/01/09 10:32:26;;;;;;;2.30;0.85;;;23.50;43.60;;;;;;4929954;28;46196;-62
2023/01/09 10:35:22;;;;;;;0.40;0.40;;;23.50;43.90;;;;;;4903128;28;45858;-62
2023/01/09 10:37:51;;;;;;;0.85;0.70;;;23.60;43.60;;;;;;4912606;28;44905;-62
2023/01/09 10:40:34;;;;;;;0.93;0.65;;;23.60;44.20;;;;;;4924474;28;44918;-63
2023/01/09 10:43:04;;;;;;;0.77;0.67;;;23.70;44.20;;;;;;4911422;28;45166;-61
2023/01/09 10:45:51;;;;;;;1.48;0.77;;;23.60;43.70;;;;;;4880592;28;45065;-62
2023/01/09 10:48:22;;;;;;;1.95;0.57;;;23.50;43.60;;;;;;4895521;28;45370;-62
2023/01/09 10:50:47;;;;;;;1.60;0.60;;;23.40;44.20;;;;;;4926597;28;46924;-61
2023/01/09 10:53:25;;;;;;;1.02;0.57;;;23.30;44.40;;;;;;4925351;28;46745;-62
2023/01/09 10:56:04;;;;;;;0.93;0.60;;;23.30;44.00;;;;;;4892133;28;45315;-63
2023/01/09 10:58:30;;;;;;;0.65;0.65;;;23.40;44.40;;;;;;4924081;28;45017;-62
2023/01/09 11:00:57;;;;;;;0.85;0.70;;;23.50;44.40;;;;;;4907157;28;45509;-61
2023/01/09 11:03:25;;;;;;;0.68;0.68;;;23.50;44.30;;;;;;4914851;28;46433;-61
2023/01/09 11:05:52;;;;;;;0.70;0.68;;;23.60;44.20;;;;;;4910312;28;44955;-62
2023/01/09 11:08:41;;;;;;;4.63;0.80;;;23.60;44.20;;;;;;4927844;28;45751;-61
2023/01/09 11:11:06;;;;;;;0.80;0.52;;;23.70;43.60;;;;;;4894028;28;45601;-61
2023/01/09 11:13:33;;;;;;;1.08;0.70;;;23.70;44.00;;;;;;4919994;28;46140;-63
2023/01/09 11:16:07;;;;;;;0.80;0.73;;;23.70;44.10;;;;;;4929798;28;44699;-61
2023/01/09 11:18:36;;;;;;;0.70;0.70;;;23.70;43.70;;;;;;4925698;23;44781;-61
2023/01/09 11:21:37;;;;;;;1.02;0.80;;;23.80;44.00;;;;;;4927367;28;44936;-61
2023/01/09 11:24:18;;;;;;;1.13;0.65;;;23.80;43.50;;;;;;4930330;28;45297;-61
2023/01/09 11:26:44;;;;;;;0.80;0.70;;;23.80;43.30;;;;;;4931586;28;45267;-61
2023/01/09 11:29:13;;;;;;;0.60;0.60;;;23.90;43.90;;;;;;4879228;28;45442;-62
2023/01/09 11:31:40;;;;;;;0.85;0.50;;;23.90;43.90;;;;;;4912240;28;45483;-61
2023/01/09 11:34:14;;;;;;;0.60;0.43;;;23.90;43.90;;;;;;4916909;28;48241;-60
2023/01/09 11:36:39;;;;;;;0.40;0.40;;;23.90;43.90;;;;;;4897434;28;45429;-61
2023/01/09 11:39:13;;;;;;;0.60;0.52;;;24.00;43.70;;;;;;4910300;28;44736;-64
2023/01/09 11:41:38;;;;;;;0.60;0.60;;;24.00;43.70;;;;;;4899176;28;45160;-62
2023/01/09 11:44:04;;;;;;;0.50;0.50;;;24.00;43.60;;;;;;4899630;28;46566;-61
2023/01/09 11:46:29;;;;;;;0.65;0.52;;;24.00;43.70;;;;;;4899278;28;45355;-63
2023/01/09 11:48:56;;;;;;;0.50;0.50;;;24.10;43.60;;;;;;4928792;28;44767;-62
2023/01/09 11:51:26;;;;;;;2.10;0.60;;;24.10;43.60;;;;;;4927824;28;45306;-62
2023/01/09 11:54:15;;;;;;;0.50;0.40;;;24.10;43.60;;;;;;4914799;28;46233;-62
2023/01/09 11:56:40;;;;;;;0.50;0.50;;;24.20;43.50;;;;;;4895996;28;45272;-63
2023/01/09 11:59:24;;;;;;;0.60;0.60;;;24.20;43.50;;;;;;4932167;28;45378;-61
2023/01/09 12:02:12;;;;;;;0.93;0.60;;;24.30;43.00;;;;;;4896506;28;45278;-63
2023/01/09 12:04:48;;;;;;;0.98;0.40;;;24.30;42.90;;;;;;4929573;28;45191;-62
2023/01/09 12:07:38;;;;;;;0.40;0.40;;;24.40;43.40;;;;;;4918914;28;44618;-62
2023/01/09 12:10:29;;;;;;;0.60;0.50;;;24.40;43.20;;;;;;4932065;28;45002;-62
2023/01/09 12:13:04;;;;;;;1.77;0.50;;;24.40;42.80;;;;;;4914092;28;44838;-63
2023/01/09 12:15:43;;;;;;;0.77;0.50;;;24.50;43.40;;;;;;4929962;28;45643;-63
2023/01/09 12:18:24;;;;;;;0.98;0.63;;;24.50;43.10;;;;;;4910204;28;45233;-62
2023/01/09 12:21:24;;;;;;;0.40;0.40;;;24.50;43.00;;;;;;4911226;28;45381;-62
2023/01/09 12:23:56;;;;;;;4.13;0.50;;;24.50;42.80;;;;;;4907979;28;45324;-63
2023/01/09 12:26:22;;;;;;;0.50;0.50;;;24.50;43.30;;;;;;4888659;28;45547;-62
2023/01/09 12:29:00;;;;;;;0.55;0.50;;;24.60;43.40;;;;;;4864580;28;45384;-63
2023/01/09 12:32:06;;;;;;;0.75;0.50;;;24.60;43.00;;;;;;4893232;28;45013;-62
2023/01/09 12:35:02;;;;;;;0.40;0.40;;;24.60;42.80;;;;;;4911870;28;45535;-63
2023/01/09 12:37:52;;;;;;;0.50;0.50;;;24.50;43.00;;;;;;4887997;28;45397;-63
2023/01/09 12:40:39;;;;;;;0.63;0.63;;;24.50;43.20;;;;;;4910041;28;45316;-63
2023/01/09 12:43:24;;;;;;;0.45;0.45;;;24.50;43.10;;;;;;4896959;28;45352;-62
2023/01/09 12:46:06;;;;;;;0.85;0.50;;;24.50;43.30;;;;;;4879830;28;45511;-63
2023/01/09 12:48:58;;;;;;;0.77;0.70;;;24.50;43.20;;;;;;4890799;28;45557;-63
2023/01/09 12:52:05;;;;;;;0.85;0.60;;;24.50;43.20;;;;;;4857792;28;45463;-61
2023/01/09 12:54:44;;;;;;;0.50;0.40;;;24.50;42.90;;;;;;4909650;28;44723;-62
2023/01/09 12:57:15;;;;;;;0.28;0.28;;;24.50;43.20;;;;;;4880437;28;45172;-62
2023/01/09 13:00:03;;;;;;;0.43;0.43;;;24.50;43.50;;;;;;4893326;28;46831;-53
2023/01/09 13:02:47;;;;;;;0.47;0.40;;;24.50;43.60;;;;;;4876530;28;46647;-54
2023/01/09 13:05:31;;;;;;;0.50;0.40;;;24.50;43.50;;;;;;4910842;28;45485;-54
2023/01/09 13:08:05;;;;;;;0.40;0.40;;;24.50;43.60;;;;;;4911895;28;45722;-53
2023/01/09 13:10:38;;;;;;;1.65;0.50;;;24.50;43.50;;;;;;4880818;28;45413;-55
2023/01/09 13:13:19;;;;;;;0.25;0.25;;;24.50;43.60;;;;;;4891266;28;45534;-50
2023/01/09 13:15:47;;;;;;;0.50;0.50;;;24.50;43.40;;;;;;4882292;28;45283;-50
2023/01/09 13:18:17;;;;;;;1.65;0.70;;;24.60;43.60;;;;;;4897242;28;45430;-50
2023/01/09 13:20:45;;;;;;;0.40;0.40;;;24.60;43.50;;;;;;4917914;28;46177;-58
2023/01/09 13:23:45;;;;;;;0.55;0.50;;;24.60;43.50;;;;;;4919261;28;45223;-52
2023/01/09 13:26:30;;;;;;;0.60;0.60;;;24.60;43.20;;;;;;4906939;28;45376;-53
2023/01/09 13:29:11;;;;;;;0.70;0.50;;;24.60;43.60;;;;;;4930238;28;45402;-54
2023/01/09 13:31:55;;;;;;;0.65;0.63;;;24.60;43.50;;;;;;4884149;28;45378;-55
2023/01/09 13:34:23;;;;;;;0.57;0.38;;;24.60;43.40;;;;;;4931270;28;45124;-57
2023/01/09 13:36:53;;;;;;;0.40;0.40;;;24.60;43.60;;;;;;4913164;28;45264;-50
2023/01/09 13:39:21;;;;;;;0.43;0.38;;;24.60;43.70;;;;;;4896004;28;45520;-50
2023/01/09 13:44:34;;;;;;;0.38;0.30;;;24.60;43.70;;;;;;4932379;28;45032;-53
2023/01/09 13:47:01;;;;;;;0.52;0.50;;;24.50;43.80;;;;;;4916374;28;45316;-54
2023/01/09 13:49:42;;;;;;;0.80;0.50;;;24.50;43.80;;;;;;4900316;28;45690;-50
2023/01/09 13:52:29;;;;;;;0.50;0.50;;;24.50;43.50;;;;;;4929909;28;45566;-55
2023/01/09 13:54:54;;;;;;;0.52;0.43;;;24.50;43.50;;;;;;4920946;28;45039;-55
2023/01/09 13:57:33;;;;;;;0.68;0.45;;;24.50;43.90;;;;;;4929452;28;45191;-54
2023/01/09 14:00:11;;;;;;;0.60;0.50;;;24.50;43.70;;;;;;4928065;28;45242;-54
2023/01/09 14:02:40;;;;;;;0.50;0.50;;;24.50;43.80;;;;;;4932206;28;45441;-55
2023/01/09 14:05:35;;;;;;;0.30;0.30;;;24.50;43.90;;;;;;4932200;28;45201;-53
2023/01/09 14:08:05;;;;;;;1.00;0.50;;;24.50;43.80;;;;;;4895872;28;45097;-52
2023/01/09 14:10:36;;;;;;;0.50;0.50;;;24.40;43.90;;;;;;4894626;28;45689;-56
2023/01/09 14:13:07;;;;;;;0.43;0.43;;;24.50;44.00;;;;;;4914444;28;45440;-54
2023/01/09 14:15:38;;;;;;;0.40;0.40;;;24.50;44.00;;;;;;4916682;28;45216;-56
2023/01/09 14:18:16;;;;;;;1.27;0.50;;;24.50;44.10;;;;;;4914792;28;44873;-52
2023/01/09 14:21:02;;;;;;;0.45;0.40;;;24.40;43.90;;;;;;4927746;28;45513;-58
2023/01/09 14:23:32;;;;;;;2.38;0.35;;;24.50;44.10;;;;;;4929841;28;46790;-55
2023/01/09 14:25:58;;;;;;;1.00;0.38;;;24.50;44.10;;;;;;4931791;28;45218;-60
2023/01/09 14:28:27;;;;;;;0.50;0.40;;;24.50;44.10;;;;;;4931149;28;45263;-52
2023/01/09 14:30:53;;;;;;;0.35;0.35;;;24.50;44.10;;;;;;4928742;28;45182;-55
2023/01/09 14:33:18;;;;;;;0.30;0.28;;;24.50;44.10;;;;;;4931971;28;45344;-53
2023/01/09 14:36:06;;;;;;;1.35;0.45;;;24.50;44.10;;;;;;4933192;28;45291;-55
2023/01/09 14:38:34;;;;;;;0.57;0.47;;;24.50;44.00;;;;;;4927381;28;45717;-57
2023/01/09 14:41:15;;;;;;;0.50;0.43;;;24.60;44.00;;;;;;4931223;28;45325;-51
2023/01/09 14:43:56;;;;;;;0.55;0.50;;;24.60;43.90;;;;;;4926052;28;46144;-57
2023/01/09 14:46:21;;;;;;;1.60;0.40;;;24.60;44.00;;;;;;4928721;28;45234;-53
2023/01/09 14:48:59;;;;;;;0.65;0.50;;;24.60;44.10;;;;;;4929902;28;45314;-61
2023/01/09 14:51:25;;;;;;;0.35;0.28;;;24.60;43.90;;;;;;4915076;28;45618;-57
2023/01/09 14:53:51;;;;;;;0.40;0.40;;;24.60;44.00;;;;;;4928822;28;46188;-53
2023/01/09 14:56:29;;;;;;;0.57;0.50;;;24.60;44.00;;;;;;4929358;28;46004;-54
2023/01/09 14:59:09;;;;;;;0.60;0.50;;;24.60;43.80;;;;;;4931044;28;45790;-54
2023/01/09 15:01:35;;;;;;;0.60;0.43;;;24.60;43.90;;;;;;4930617;28;45472;-53
2023/01/09 15:04:06;;;;;;;0.40;0.32;;;24.70;44.00;;;;;;4930837;28;46321;-56
2023/01/09 15:06:39;;;;;;;1.73;0.43;;;24.60;44.00;;;;;;4917000;28;45273;-55
2023/01/09 15:09:08;;;;;;;0.75;0.60;;;24.70;44.00;;;;;;4931354;28;44953;-58
2023/01/09 15:11:33;;;;;;;0.40;0.40;;;24.70;44.00;;;;;;4928334;28;45175;-61
2023/01/09 15:14:00;;;;;;;0.43;0.38;;;24.70;44.10;;;;;;4928610;28;47230;-55
2023/01/09 15:16:26;;;;;;;0.40;0.40;;;24.70;44.00;;;;;;4929141;28;45090;-54
2023/01/09 15:18:56;;;;;;;0.40;0.22;;;24.70;44.10;;;;;;4927969;28;45265;-52
2023/01/09 15:21:26;;;;;;;0.32;0.32;;;24.70;44.10;;;;;;4929446;28;45427;-51
2023/01/09 15:23:51;;;;;;;0.55;0.43;;;24.70;44.00;;;;;;4926624;28;47299;-53
2023/01/09 15:26:26;;;;;;;0.43;0.40;;;24.80;44.10;;;;;;4915918;28;44615;-55
2023/01/09 15:28:53;;;;;;;0.70;0.68;;;24.80;44.00;;;;;;4930841;28;45646;-53
2023/01/09 15:31:21;;;;;;;0.57;0.55;;;24.80;44.10;;;;;;4930211;28;45997;-53
2023/01/09 15:33:46;;;;;;;0.35;0.35;;;24.80;44.10;;;;;;4928668;28;46243;-50
2023/01/09 15:36:26;;;;;;;0.38;0.35;;;24.80;44.00;;;;;;4930211;28;44720;-55
2023/01/09 15:38:51;;;;;;;0.52;0.50;;;24.90;43.80;;;;;;4927953;28;44789;-52
2023/01/09 15:44:26;;;;;;;0.73;0.50;;;24.90;43.60;;;;;;4927074;28;45369;-57
2023/01/09 15:46:54;;;;;;;0.60;0.40;;;24.90;43.80;;;;;;4927802;28;45240;-58
2023/01/09 15:49:19;;;;;;;0.50;0.50;;;24.90;43.90;;;;;;4929115;28;45138;-56
2023/01/09 15:51:45;;;;;;;0.40;0.40;;;25.00;43.90;;;;;;4914056;28;45507;-54
2023/01/09 15:54:27;;;;;;;0.40;0.40;;;25.00;43.90;;;;;;4912451;28;45318;-57
2023/01/09 15:56:52;;;;;;;0.38;0.38;;;25.00;43.70;;;;;;4911561;28;45370;-53
2023/01/09 15:59:22;;;;;;;0.30;0.30;;;25.00;43.90;;;;;;4930629;28;45161;-55
2023/01/09 16:03:08;;;;;;;0.40;0.30;;;24.90;43.80;;;;;;4929306;28;45432;-56
2023/01/09 16:04:40;;;;;;;0.50;0.40;;;25.00;43.90;;;;;;4961067;23;48533;-56
2023/01/09 16:07:14;;;;;;;0.40;0.40;;;25.00;43.90;;;;;;4929323;28;44790;-54
2023/01/09 16:09:40;;;;;;;0.43;0.38;;;25.00;43.90;;;;;;4943806;28;45237;-63
2023/01/09 16:12:06;;;;;;;0.73;0.32;;;25.00;43.90;;;;;;4926561;28;45349;-56
2023/01/09 16:14:37;;;;;;;0.75;0.60;;;25.00;43.90;;;;;;4926262;28;45269;-55
2023/01/09 16:17:05;;;;;;;0.32;0.30;;;25.00;43.80;;;;;;4926207;28;45579;-50
2023/01/09 16:19:43;;;;;;;0.40;0.40;;;25.00;43.90;;;;;;4911306;28;45210;-55
2023/01/09 16:22:21;;;;;;;0.50;0.40;;;25.00;43.70;;;;;;4946062;28;45216;-55
2023/01/09 16:24:47;;;;;;;0.40;0.30;;;25.00;43.70;;;;;;4925116;28;46334;-59
2023/01/09 16:27:15;;;;;;;1.17;0.50;;;25.00;43.90;;;;;;4930319;28;45309;-53
2023/01/09 16:29:45;;;;;;;0.60;0.40;;;25.00;43.90;;;;;;4930448;28;45788;-51
2023/01/09 16:32:17;;;;;;;0.40;0.30;;;25.00;43.90;;;;;;4930323;28;44776;-51
2023/01/09 16:34:44;;;;;;;0.60;0.60;;;25.10;43.80;;;;;;4939243;28;45992;-60
2023/01/09 16:37:11;;;;;;;0.47;0.30;;;25.10;43.90;;;;;;4947808;28;45280;-56
2023/01/09 16:39:37;;;;;;;0.30;0.28;;;25.10;44.50;;;;;;4924095;28;45267;-54
2023/01/09 16:44:53;;;;;;;0.47;0.35;;;25.10;43.80;;;;;;4910071;28;46376;-56
2023/01/09 16:47:18;;;;;;;0.35;0.30;;;25.10;43.90;;;;;;4930790;28;45325;-53
2023/01/09 16:49:44;;;;;;;0.47;0.47;;;24.90;43.90;;;;;;4929200;28;46801;-57
2023/01/09 16:52:18;;;;;;;1.85;0.50;;;24.90;44.00;;;;;;4927183;28;45206;-58
2023/01/09 16:54:46;;;;;;;0.75;0.35;;;24.80;43.90;;;;;;4929479;28;46034;-52
2023/01/09 16:57:14;;;;;;;0.32;0.32;;;24.60;44.20;;;;;;4932811;28;45301;-55
2023/01/09 16:59:40;;;;;;;0.52;0.40;;;24.50;44.40;;;;;;4930699;28;45398;-58
2023/01/09 17:02:14;;;;;;;0.43;0.43;;;24.50;44.60;;;;;;4926140;28;45730;-55
2023/01/09 17:04:40;;;;;;;0.77;0.50;;;24.40;44.60;;;;;;4931113;28;46178;-52
2023/01/09 17:07:05;;;;;;;0.55;0.50;;;24.30;44.70;;;;;;4924811;28;45489;-53
2023/01/09 17:09:31;;;;;;;0.52;0.40;;;24.20;44.90;;;;;;4930830;28;45493;-55
2023/01/09 17:11:57;;;;;;;0.32;0.32;;;24.10;45.00;;;;;;4928859;28;45998;-52
2023/01/09 17:14:23;;;;;;;0.40;0.40;;;24.00;45.10;;;;;;4927144;28;45650;-57
2023/01/09 17:16:49;;;;;;;0.50;0.50;;;23.90;45.20;;;;;;4927479;28;45266;-53
2023/01/09 17:19:18;;;;;;;0.50;0.30;;;23.80;45.30;;;;;;4925485;28;45163;-52
2023/01/09 17:21:44;;;;;;;0.90;0.57;;;23.70;45.40;;;;;;4925156;28;46102;-53
2023/01/09 17:29:38;;;;;;;0.60;0.40;;;23.40;45.80;;;;;;4926635;28;46382;-56
2023/01/09 17:32:04;;;;;;;0.40;0.40;;;23.40;46.00;;;;;;4926923;28;45490;-53